createdAt,value
2019-03-15T04:25:40.459Z,7.60
2019-03-15T04:28:09.753Z,7.70
2019-03-15T04:30:40.079Z,7.80
2019-03-15T04:33:10.382Z,7.70
2019-03-15T04:35:40.690Z,7.80
2019-03-15T04:38:11.071Z,7.70
2019-03-15T04:40:41.476Z,7.70
2019-03-15T04:43:11.802Z,7.70
2019-03-15T04:45:42.142Z,7.70
2019-03-15T04:48:12.569Z,7.60
2019-03-15T04:50:42.857Z,7.70
2019-03-15T04:53:13.165Z,7.70
2019-03-15T04:55:43.435Z,7.70
2019-03-15T04:58:13.767Z,7.70
2019-03-15T05:00:44.123Z,7.70
2019-03-15T05:03:14.458Z,7.70
2019-03-15T05:06:17.814Z,7.80
2019-03-15T05:08:48.173Z,7.80
2019-03-15T05:11:18.490Z,7.80
2019-03-15T05:13:48.848Z,7.80
2019-03-15T05:16:19.153Z,7.70
2019-03-15T05:18:49.488Z,7.80
2019-03-15T05:21:19.849Z,7.80
2019-03-15T05:23:50.202Z,7.80
2019-03-15T05:26:20.533Z,7.70
2019-03-15T05:28:50.885Z,7.70
2019-03-15T05:31:21.200Z,7.80
2019-03-15T05:33:51.557Z,7.90
2019-03-15T05:36:21.904Z,7.80
2019-03-15T05:38:52.248Z,7.80
2019-03-15T05:41:22.583Z,7.90
2019-03-15T05:43:53.274Z,7.80
2019-03-15T05:46:23.689Z,7.70
2019-03-15T05:48:54.023Z,7.50
2019-03-15T05:51:24.356Z,7.50
2019-03-15T05:53:54.668Z,7.70
2019-03-15T05:56:25.030Z,7.60
2019-03-15T05:58:55.337Z,7.60
2019-03-15T06:01:25.678Z,7.40
2019-03-15T06:03:55.990Z,7.30
2019-03-15T06:06:26.342Z,7.30
2019-03-15T06:08:57.001Z,7.30
2019-03-15T06:11:27.448Z,7.20
2019-03-15T06:13:57.943Z,7.30
2019-03-15T06:16:28.362Z,7.30
2019-03-15T06:18:59.003Z,7.50
2019-03-15T06:21:29.468Z,7.60
2019-03-15T06:24:00.091Z,7.70
2019-03-15T06:26:30.542Z,7.60
2019-03-15T06:29:01.771Z,7.70
2019-03-15T06:31:32.279Z,7.70
2019-03-15T06:34:02.537Z,7.70
2019-03-15T06:36:33.542Z,7.70
2019-03-15T06:39:05.566Z,7.60
2019-03-15T06:41:39.113Z,7.70
2019-03-15T06:44:09.473Z,7.70
2019-03-15T06:46:39.836Z,7.60
2019-03-15T06:49:10.730Z,7.60
2019-03-15T06:51:41.145Z,7.60
2019-03-15T06:54:12.101Z,7.60
2019-03-15T06:56:46.170Z,7.50
2019-03-15T06:59:16.735Z,7.40
2019-03-15T07:01:47.425Z,7.60
2019-03-15T07:04:18.198Z,7.50
2019-03-15T07:06:48.714Z,7.60
2019-03-15T07:09:19.582Z,7.60
2019-03-15T07:11:50.071Z,7.60
2019-03-15T07:14:20.416Z,7.60
2019-03-15T07:16:52.255Z,7.60
2019-03-15T07:19:28.886Z,7.80
2019-03-15T07:21:59.479Z,7.70
2019-03-15T07:24:31.134Z,7.70
2019-03-15T07:27:11.996Z,7.70
2019-03-15T07:29:33.452Z,7.50
2019-03-15T07:32:03.814Z,7.70
2019-03-15T07:34:34.194Z,7.60
2019-03-15T07:37:04.878Z,7.70
2019-03-15T07:39:35.534Z,7.60
2019-03-15T07:42:06.954Z,7.80
2019-03-15T07:44:40.509Z,7.90
2019-03-15T07:47:10.828Z,8.00
2019-03-15T07:49:41.133Z,8.10
2019-03-15T07:52:12.858Z,8.10
2019-03-15T07:54:44.986Z,8.10
2019-03-15T07:57:17.260Z,7.90
2019-03-15T07:59:48.086Z,8.00
2019-03-15T08:02:19.545Z,8.10
2019-03-15T08:04:55.105Z,8.10
2019-03-15T08:07:35.728Z,8.20
2019-03-15T08:09:58.454Z,8.30
2019-03-15T08:12:30.388Z,8.30
2019-03-15T08:15:01.734Z,8.30
2019-03-15T08:17:32.651Z,8.30
2019-03-15T08:20:04.125Z,8.00
2019-03-15T08:22:36.247Z,8.20
2019-03-15T08:25:08.415Z,8.20
2019-03-15T08:27:44.630Z,8.20
2019-03-15T08:30:18.929Z,8.10
2019-03-15T08:32:50.779Z,7.90
2019-03-15T08:35:24.513Z,7.90
2019-03-15T08:37:56.195Z,7.80
2019-03-15T08:40:27.568Z,7.70
2019-03-15T08:42:58.962Z,7.80
2019-03-15T08:45:29.909Z,7.80
2019-03-15T08:48:00.375Z,7.80
2019-03-15T08:50:30.836Z,7.90
2019-03-15T08:53:01.244Z,8.10
2019-03-15T08:55:32.556Z,8.20
2019-03-15T08:58:13.318Z,8.40
2019-03-15T09:00:37.366Z,8.50
2019-03-15T09:03:09.619Z,8.60
2019-03-15T09:05:39.929Z,8.70
2019-03-15T09:08:10.393Z,8.80
2019-03-15T09:10:41.551Z,8.80
2019-03-15T09:13:13.528Z,9.00
2019-03-15T09:15:44.641Z,9.10
2019-03-15T09:18:18.146Z,9.30
2019-03-15T09:20:48.749Z,9.20
2019-03-15T09:23:19.067Z,9.30
2019-03-15T09:25:49.387Z,9.10
2019-03-15T09:28:19.713Z,9.00
2019-03-15T09:30:50.030Z,9.20
2019-03-15T09:33:20.320Z,9.10
2019-03-15T09:35:51.594Z,9.20
2019-03-15T09:38:21.892Z,9.10
2019-03-15T09:40:52.325Z,9.10
2019-03-15T09:43:22.701Z,9.30
2019-03-15T09:45:55.526Z,9.40
2019-03-15T09:48:25.007Z,9.60
2019-03-15T09:50:55.293Z,9.50
2019-03-15T09:53:25.569Z,9.70
2019-03-15T09:55:55.898Z,9.70
2019-03-15T09:58:26.186Z,9.80
2019-03-15T10:00:57.105Z,9.90
2019-03-15T10:03:27.922Z,10.00
2019-03-15T10:05:58.233Z,10.00
2019-03-15T10:08:28.621Z,10.10
2019-03-15T10:10:58.945Z,10.10
2019-03-15T10:13:29.301Z,9.90
2019-03-15T10:15:59.573Z,9.90
2019-03-15T10:18:29.910Z,10.10
2019-03-15T10:21:00.224Z,10.20
2019-03-15T10:23:30.765Z,10.30
2019-03-15T10:26:01.244Z,10.40
2019-03-15T10:28:31.597Z,10.50
2019-03-15T10:31:01.984Z,10.50
2019-03-15T10:33:32.323Z,10.60
2019-03-15T10:36:02.633Z,10.60
2019-03-15T10:38:33.291Z,10.70
2019-03-15T10:41:03.635Z,10.70
2019-03-15T10:43:34.634Z,10.70
2019-03-15T10:46:06.302Z,10.70
2019-03-15T10:48:36.860Z,10.60
2019-03-15T10:51:07.185Z,10.70
2019-03-15T10:53:37.570Z,10.70
2019-03-15T10:56:07.861Z,10.70
2019-03-15T10:58:38.217Z,10.70
2019-03-15T11:01:08.626Z,10.60
2019-03-15T11:03:39.066Z,10.60
2019-03-15T11:06:09.418Z,10.60
2019-03-15T11:08:39.732Z,10.60
2019-03-15T11:11:10.046Z,10.60
2019-03-15T11:13:40.403Z,10.70
2019-03-15T11:16:10.714Z,11.00
2019-03-15T11:18:41.087Z,11.10
2019-03-15T11:21:11.355Z,11.20
2019-03-15T11:23:41.719Z,11.50
2019-03-15T11:26:13.852Z,11.70
2019-03-15T11:28:43.963Z,11.70
2019-03-15T11:31:14.293Z,11.70
2019-03-15T11:33:47.283Z,11.80
2019-03-15T11:36:16.570Z,11.80
2019-03-15T11:38:46.863Z,11.70
2019-03-15T11:41:17.172Z,11.70
2019-03-15T11:43:47.508Z,11.70
2019-03-15T11:46:17.863Z,11.70
2019-03-15T11:49:02.205Z,11.90
2019-03-15T11:51:32.532Z,12.00
2019-03-15T11:54:02.858Z,12.10
2019-03-15T11:56:35.262Z,12.20
2019-03-15T11:59:05.562Z,12.20
2019-03-15T12:01:37.829Z,12.20
2019-03-15T12:04:08.374Z,12.30
2019-03-15T12:06:46.054Z,12.40
2019-03-15T12:09:17.178Z,12.30
2019-03-15T12:11:54.806Z,12.40
2019-03-15T12:14:40.443Z,12.40
2019-03-15T12:17:06.677Z,12.50
2019-03-15T12:19:48.310Z,12.60
2019-03-15T12:22:09.764Z,12.60
2019-03-15T12:24:46.920Z,12.60
2019-03-15T12:27:14.176Z,12.70
2019-03-15T12:31:41.499Z,12.70
2019-03-15T12:32:24.028Z,12.80
2019-03-15T12:34:58.404Z,12.80
2019-03-15T12:37:36.585Z,12.90
2019-03-15T12:40:10.877Z,12.90
2019-03-15T12:42:42.036Z,12.90
2019-03-15T12:45:17.533Z,12.90
2019-03-15T12:47:51.320Z,12.90
2019-03-15T12:50:21.793Z,13.00
2019-03-15T12:52:53.935Z,13.00
2019-03-15T12:55:47.260Z,12.90
2019-03-15T12:58:23.181Z,13.00
2019-03-15T13:00:58.330Z,13.00
2019-03-15T13:03:28.852Z,13.10
2019-03-15T13:09:23.876Z,13.10
2019-03-15T13:12:03.060Z,13.20
2019-03-15T13:14:33.435Z,13.20
2019-03-15T13:17:21.474Z,13.20
2019-03-15T13:19:55.422Z,13.20
2019-03-15T13:22:25.417Z,13.30
2019-03-15T13:24:56.302Z,13.30
2019-03-15T13:27:27.929Z,13.30
2019-03-15T13:29:59.083Z,13.30
2019-03-15T13:32:30.345Z,13.30
2019-03-15T13:35:01.077Z,13.30
2019-03-15T13:37:55.720Z,13.40
2019-03-15T13:40:32.213Z,13.40
2019-03-15T13:43:02.361Z,13.40
2019-03-15T13:45:34.339Z,13.40
2019-03-15T13:48:44.014Z,13.50
2019-03-15T13:51:06.275Z,13.50
2019-03-15T13:53:42.104Z,13.50
2019-03-15T13:56:18.232Z,13.50
2019-03-15T13:58:57.202Z,13.50
2019-03-15T14:01:20.807Z,13.50
2019-03-15T14:03:51.383Z,13.60
2019-03-15T14:06:21.926Z,13.60
2019-03-15T14:08:52.408Z,13.70
2019-03-15T14:11:22.880Z,13.70
2019-03-15T14:13:53.409Z,13.70
2019-03-15T14:16:23.686Z,13.70
2019-03-15T14:18:54.181Z,13.70
2019-03-15T14:21:24.815Z,13.70
2019-03-15T14:23:55.551Z,13.60
2019-03-15T14:26:25.902Z,13.60
2019-03-15T14:28:57.687Z,13.70
2019-03-15T14:31:28.036Z,13.70
2019-03-15T14:33:59.356Z,13.80
2019-03-15T14:36:29.653Z,13.70
2019-03-15T14:39:00.117Z,13.70
2019-03-15T14:41:30.913Z,13.70
2019-03-15T14:44:01.332Z,13.70
2019-03-15T14:46:31.604Z,14.10
2019-03-15T14:49:02.791Z,14.30
2019-03-15T14:51:34.341Z,14.00
2019-03-15T14:54:06.228Z,13.90
2019-03-15T14:56:37.903Z,13.70
2019-03-15T14:59:08.562Z,13.60
2019-03-15T15:01:39.851Z,13.60
2019-03-15T15:04:11.563Z,13.60
2019-03-15T15:06:43.317Z,13.50
2019-03-15T15:09:13.930Z,13.50
2019-03-15T15:11:44.431Z,13.50
2019-03-15T15:14:14.833Z,13.40
2019-03-15T15:16:45.145Z,13.40
2019-03-15T15:19:15.799Z,13.40
2019-03-15T15:21:52.957Z,13.40
2019-03-15T15:24:25.510Z,13.30
2019-03-15T15:26:56.013Z,13.30
2019-03-15T15:29:26.610Z,13.20
2019-03-15T15:31:57.038Z,13.20
2019-03-15T15:34:28.473Z,13.20
2019-03-15T15:36:59.840Z,13.20
2019-03-15T15:39:32.977Z,13.20
2019-03-15T15:42:04.650Z,13.20
2019-03-15T15:44:37.456Z,13.20
2019-03-15T15:47:08.690Z,13.20
2019-03-15T15:49:43.380Z,13.20
2019-03-15T15:52:15.123Z,13.20
2019-03-15T15:54:50.144Z,13.20
2019-03-15T15:57:23.732Z,13.20
2019-03-15T15:59:55.150Z,13.10
2019-03-15T16:02:27.451Z,13.20
2019-03-15T16:04:57.908Z,13.10
2019-03-15T16:07:28.538Z,13.10
2019-03-15T16:09:59.889Z,13.10
2019-03-15T16:12:30.182Z,13.10
2019-03-15T16:15:00.612Z,13.10
2019-03-15T16:17:38.600Z,13.00
2019-03-15T16:20:09.809Z,13.00
2019-03-15T16:22:41.024Z,13.00
2019-03-15T16:25:13.508Z,13.00
2019-03-15T16:27:46.075Z,12.90
2019-03-15T16:30:17.407Z,12.90
2019-03-15T16:32:49.402Z,12.90
2019-03-15T16:35:21.632Z,12.90
2019-03-15T16:37:52.352Z,12.90
2019-03-15T16:40:22.815Z,12.90
2019-03-15T16:42:53.198Z,12.90
2019-03-15T16:45:24.437Z,12.90
2019-03-15T16:47:54.926Z,12.80
2019-03-15T16:50:25.217Z,12.80
2019-03-15T16:52:55.534Z,12.80
2019-03-15T16:55:26.307Z,12.80
2019-03-15T16:57:57.197Z,12.80
2019-03-15T17:00:29.857Z,12.70
2019-03-15T17:03:01.317Z,12.80
2019-03-15T17:05:32.690Z,12.70
2019-03-15T17:08:04.605Z,12.70
2019-03-15T17:10:35.825Z,12.70
2019-03-15T17:13:07.579Z,12.70
2019-03-15T17:15:42.519Z,12.70
2019-03-15T17:18:16.641Z,12.70
2019-03-15T17:20:47.867Z,12.70
2019-03-15T17:23:20.023Z,12.70
2019-03-15T17:25:51.238Z,12.70
2019-03-15T17:28:32.279Z,12.60
2019-03-15T17:31:10.126Z,12.70
2019-03-15T17:33:36.822Z,12.70
2019-03-15T17:36:07.111Z,12.60
2019-03-15T17:38:44.123Z,12.60
2019-03-15T17:41:14.490Z,12.60
2019-03-15T17:43:44.830Z,12.60
2019-03-15T17:46:15.178Z,12.60
2019-03-15T17:48:45.468Z,12.50
2019-03-15T17:51:16.654Z,12.50
2019-03-15T17:53:47.605Z,12.60
2019-03-15T17:56:18.315Z,12.50
2019-03-15T17:58:50.648Z,12.60
2019-03-15T18:01:24.451Z,12.60
2019-03-15T18:03:56.114Z,12.60
2019-03-15T18:06:27.418Z,12.50
2019-03-15T18:09:00.120Z,12.60
2019-03-15T18:11:32.490Z,12.50
2019-03-15T18:14:06.440Z,12.50
2019-03-15T18:16:42.618Z,12.50
2019-03-15T18:19:20.056Z,12.50
2019-03-15T18:21:51.353Z,12.50
2019-03-15T18:24:24.341Z,12.50
2019-03-15T18:27:03.839Z,12.50
2019-03-15T18:29:34.810Z,12.50
2019-03-15T18:32:05.620Z,12.50
2019-03-15T18:34:36.121Z,12.50
2019-03-15T18:37:07.198Z,12.40
2019-03-15T18:39:39.327Z,12.40
2019-03-15T18:42:09.708Z,12.40
2019-03-15T18:44:41.204Z,12.30
2019-03-15T18:47:11.723Z,12.30
2019-03-15T18:49:42.220Z,12.30
2019-03-15T18:52:13.433Z,12.20
2019-03-15T18:54:44.253Z,12.10
2019-03-15T18:57:17.849Z,12.10
2019-03-15T18:59:50.362Z,12.10
2019-03-15T19:02:20.696Z,12.10
2019-03-15T19:04:51.061Z,12.00
2019-03-15T19:07:22.241Z,12.00
2019-03-15T19:09:52.597Z,12.10
2019-03-15T19:12:22.899Z,12.10
2019-03-15T19:14:53.234Z,12.10
2019-03-15T19:17:23.589Z,12.10
2019-03-15T19:19:53.979Z,12.10
2019-03-15T19:22:26.270Z,12.20
2019-03-15T19:24:56.638Z,12.20
2019-03-15T19:27:26.979Z,12.20
2019-03-15T19:29:57.983Z,12.20
2019-03-15T19:32:28.594Z,12.20
2019-03-15T19:34:59.220Z,12.20
2019-03-15T19:37:29.722Z,12.20
2019-03-15T19:40:00.376Z,12.20
2019-03-15T19:42:30.982Z,12.20
2019-03-15T19:45:01.478Z,12.30
2019-03-15T19:47:32.649Z,12.30
2019-03-15T19:50:04.223Z,12.30
2019-03-15T19:52:34.868Z,12.30
2019-03-15T19:55:05.986Z,12.30
2019-03-15T19:57:36.629Z,12.40
2019-03-15T20:00:08.882Z,12.30
2019-03-15T20:02:40.691Z,12.30
2019-03-15T20:05:11.760Z,12.30
2019-03-15T20:07:43.167Z,12.30
2019-03-15T20:10:16.530Z,12.40
2019-03-15T20:12:46.541Z,12.40
2019-03-15T20:15:17.052Z,12.40
2019-03-15T20:17:48.359Z,12.50
2019-03-15T20:20:18.776Z,12.50
2019-03-15T20:22:49.980Z,12.40
2019-03-15T20:25:20.537Z,12.40
2019-03-15T20:27:50.937Z,12.40
2019-03-15T20:30:26.263Z,12.50
2019-03-15T20:32:53.673Z,12.50
2019-03-15T20:35:24.014Z,12.50
2019-03-15T20:37:54.852Z,12.50
2019-03-15T20:40:25.172Z,12.40
2019-03-15T20:42:55.743Z,12.40
2019-03-15T20:45:26.792Z,12.50
2019-03-15T20:47:57.913Z,12.40
2019-03-15T20:50:28.447Z,12.50
2019-03-15T20:53:09.537Z,12.50
2019-03-15T20:55:31.137Z,12.50
2019-03-15T20:58:02.534Z,12.40
2019-03-15T21:00:35.993Z,12.50
2019-03-15T21:03:07.303Z,12.50
2019-03-15T21:05:38.039Z,12.40
2019-03-15T21:08:08.461Z,12.40
2019-03-15T21:10:38.799Z,12.40
2019-03-15T21:13:09.325Z,12.40
2019-03-15T21:15:41.558Z,12.40
2019-03-15T21:18:14.459Z,12.40
2019-03-15T21:20:44.830Z,12.40
2019-03-15T21:23:15.318Z,12.30
2019-03-15T21:25:45.790Z,12.30
2019-03-15T21:28:16.644Z,12.30
2019-03-15T21:30:53.058Z,12.30
2019-03-15T21:33:28.438Z,12.30
2019-03-15T21:36:01.178Z,12.30
2019-03-15T21:38:31.102Z,12.30
2019-03-15T21:41:01.769Z,12.40
2019-03-15T21:43:32.574Z,12.30
2019-03-15T21:46:03.843Z,12.30
2019-03-15T21:48:34.259Z,12.30
2019-03-15T21:51:04.808Z,12.30
2019-03-15T21:53:35.547Z,12.30
2019-03-15T21:56:07.685Z,12.30
2019-03-15T21:58:39.929Z,12.30
2019-03-15T22:01:10.596Z,12.30
2019-03-15T22:03:41.093Z,12.30
2019-03-15T22:06:11.486Z,12.30
2019-03-15T22:08:42.008Z,12.20
2019-03-15T22:11:20.965Z,12.20
2019-03-15T22:13:45.567Z,12.20
2019-03-15T22:16:16.931Z,12.20
2019-03-15T22:18:47.596Z,12.20
2019-03-15T22:21:17.933Z,12.20
2019-03-15T22:23:56.185Z,12.10
2019-03-15T22:29:34.426Z,12.10
2019-03-15T22:32:04.974Z,12.10
2019-03-15T22:34:45.868Z,12.00
2019-03-15T22:37:54.604Z,12.00
2019-03-15T22:40:32.939Z,12.00
2019-03-15T22:43:10.521Z,12.10
2019-03-15T22:45:43.674Z,12.00
2019-03-15T22:48:14.114Z,12.00
2019-03-15T22:50:50.959Z,12.10
2019-03-15T22:53:23.010Z,12.00
2019-03-15T22:55:58.284Z,12.00
2019-03-15T22:58:30.620Z,12.00
2019-03-15T23:01:01.036Z,11.90
2019-03-15T23:03:33.378Z,11.80
2019-03-15T23:06:04.112Z,11.80
2019-03-15T23:08:34.753Z,11.70
2019-03-15T23:11:05.070Z,11.70
2019-03-15T23:13:35.429Z,11.70
2019-03-15T23:16:08.033Z,11.70
2019-03-15T23:18:39.617Z,11.70
2019-03-15T23:21:09.985Z,11.70
2019-03-15T23:23:40.332Z,11.70
2019-03-15T23:26:12.275Z,11.70
2019-03-15T23:28:47.097Z,11.70
2019-03-15T23:31:18.359Z,11.70
2019-03-15T23:33:48.636Z,11.70
2019-03-15T23:36:19.962Z,11.70
2019-03-15T23:38:50.235Z,11.70
2019-03-15T23:41:20.555Z,11.70
2019-03-15T23:43:50.842Z,11.70
2019-03-15T23:46:21.229Z,11.70
2019-03-15T23:48:51.523Z,11.60
2019-03-15T23:51:21.876Z,11.60
2019-03-15T23:53:52.189Z,11.60
2019-03-15T23:56:22.557Z,11.70
2019-03-15T23:58:52.817Z,11.60
